createdAt,value
2022-08-22T00:03:35.504Z,65.98
2022-08-22T00:09:40.185Z,66.16
2022-08-22T00:15:49.125Z,65.66
2022-08-22T00:22:04.302Z,65.95
2022-08-22T00:28:21.175Z,65.87
2022-08-22T00:34:26.446Z,65.63
2022-08-22T00:41:01.938Z,65.79
2022-08-22T00:47:40.625Z,65.61
2022-08-22T00:54:00.605Z,65.96
2022-08-22T01:00:21.710Z,65.76
2022-08-22T01:06:40.129Z,65.75
2022-08-22T01:12:41.736Z,65.67
2022-08-22T01:18:43.362Z,65.71
2022-08-22T01:25:19.980Z,66.16
2022-08-22T01:32:01.984Z,65.61
2022-08-22T01:38:22.050Z,66.02
2022-08-22T01:44:24.396Z,66.17
2022-08-22T01:50:44.651Z,65.79
2022-08-22T01:56:47.279Z,65.73
2022-08-22T02:03:01.563Z,65.73
2022-08-22T02:09:14.562Z,66.09
2022-08-22T02:15:34.397Z,66.23
2022-08-22T02:21:51.207Z,65.77
2022-08-22T02:28:06.317Z,65.77
2022-08-22T02:34:58.942Z,65.94
2022-08-22T02:41:04.178Z,65.95
2022-08-22T02:47:15.826Z,65.91
2022-08-22T02:53:32.085Z,65.58
2022-08-22T02:59:38.505Z,65.90
2022-08-22T03:05:46.062Z,65.73
2022-08-22T03:12:01.363Z,65.70
2022-08-22T03:18:21.687Z,65.59
2022-08-22T03:24:26.398Z,65.56
2022-08-22T03:30:38.513Z,65.75
2022-08-22T03:36:47.658Z,65.91
2022-08-22T03:43:14.435Z,65.68
2022-08-22T03:49:42.196Z,65.72
2022-08-22T03:55:44.276Z,65.50
2022-08-22T04:02:41.799Z,65.11
2022-08-22T04:08:45.993Z,65.14
2022-08-22T04:15:21.611Z,65.38
2022-08-22T04:21:47.816Z,65.27
2022-08-22T04:28:06.241Z,65.11
2022-08-22T04:34:22.799Z,65.39
2022-08-22T04:40:46.710Z,65.43
2022-08-22T04:47:17.515Z,65.85
2022-08-22T04:53:25.212Z,65.93
2022-08-22T04:59:29.452Z,66.80
2022-08-22T05:05:39.067Z,66.71
2022-08-22T05:11:42.564Z,66.04
2022-08-22T05:17:47.506Z,64.89
2022-08-22T05:24:08.340Z,63.77
2022-08-22T05:30:16.394Z,63.32
2022-08-22T05:36:30.391Z,62.75
2022-08-22T05:42:35.096Z,63.13
2022-08-22T05:48:45.485Z,62.44
2022-08-22T05:54:58.890Z,62.71
2022-08-22T06:01:32.893Z,63.27
2022-08-22T06:07:48.847Z,63.55
2022-08-22T06:13:58.305Z,63.83
2022-08-22T06:20:00.601Z,63.53
2022-08-22T06:26:04.390Z,63.55
2022-08-22T06:32:58.541Z,63.20
2022-08-22T06:39:10.711Z,62.42
2022-08-22T06:45:19.394Z,62.19
2022-08-22T06:51:25.149Z,61.74
2022-08-22T06:57:34.896Z,61.99
2022-08-22T07:03:40.391Z,61.87
2022-08-22T07:09:42.352Z,62.35
2022-08-22T07:15:50.811Z,62.26
2022-08-22T07:21:53.226Z,62.10
2022-08-22T07:28:36.862Z,61.61
2022-08-22T07:34:54.606Z,61.86
2022-08-22T07:41:16.697Z,62.06
2022-08-22T07:47:26.712Z,61.80
2022-08-22T07:53:30.581Z,61.87
2022-08-22T07:59:37.278Z,61.54
2022-08-22T08:05:43.016Z,62.02
2022-08-22T08:11:45.065Z,62.29
2022-08-22T08:17:51.407Z,62.91
2022-08-22T08:23:55.825Z,62.95
2022-08-22T08:30:15.472Z,62.79
2022-08-22T08:36:47.524Z,63.05
2022-08-22T08:43:22.888Z,62.78
2022-08-22T08:49:58.115Z,63.14
2022-08-22T08:56:19.801Z,62.80
2022-08-22T09:02:52.419Z,62.99
2022-08-22T09:09:29.429Z,63.09
2022-08-22T09:16:08.227Z,63.81
2022-08-22T09:22:14.982Z,63.94
2022-08-22T09:28:28.214Z,63.90
2022-08-22T09:35:02.006Z,63.89
2022-08-22T09:41:19.625Z,64.05
2022-08-22T09:47:35.165Z,64.00
2022-08-22T09:53:56.442Z,63.60
2022-08-22T10:00:05.403Z,64.21
2022-08-22T10:06:17.961Z,64.17
2022-08-22T10:12:29.687Z,63.92
2022-08-22T10:18:52.792Z,64.35
2022-08-22T10:25:01.597Z,64.41
2022-08-22T10:31:15.019Z,63.86
2022-08-22T10:37:32.614Z,63.20
2022-08-22T10:44:00.607Z,62.90
2022-08-22T10:50:35.291Z,63.06
2022-08-22T10:56:46.195Z,63.53
2022-08-22T11:03:02.487Z,64.27
2022-08-22T11:09:19.238Z,64.80
2022-08-22T11:16:07.276Z,63.74
2022-08-22T11:22:36.697Z,63.91
2022-08-22T11:29:13.798Z,62.39
2022-08-22T11:35:26.145Z,63.20
2022-08-22T11:41:52.772Z,62.88
2022-08-22T11:48:09.706Z,63.28
2022-08-22T11:54:31.259Z,63.24
2022-08-22T12:01:11.806Z,63.10
2022-08-22T12:07:33.284Z,62.92
2022-08-22T12:14:05.892Z,63.16
2022-08-22T12:20:16.246Z,63.48
2022-08-22T12:26:45.068Z,63.22
2022-08-22T12:33:10.630Z,63.35
2022-08-22T12:39:45.810Z,63.17
2022-08-22T12:46:13.028Z,62.91
2022-08-22T12:52:32.547Z,62.78
2022-08-22T12:59:09.662Z,62.98
2022-08-22T13:05:24.771Z,61.85
2022-08-22T13:11:30.920Z,58.55
2022-08-22T13:17:33.228Z,58.73
2022-08-22T13:23:43.412Z,57.54
2022-08-22T13:29:52.111Z,57.86
2022-08-22T13:35:58.337Z,57.85
2022-08-22T13:42:07.685Z,58.09
2022-08-22T13:48:16.424Z,55.39
2022-08-22T13:54:39.987Z,54.17
2022-08-22T14:01:01.078Z,55.10
2022-08-22T14:07:03.707Z,56.21
2022-08-22T14:13:12.149Z,57.28
2022-08-22T14:19:38.278Z,57.60
2022-08-22T14:25:54.657Z,58.65
2022-08-22T14:32:22.565Z,58.62
2022-08-22T14:38:33.217Z,58.99
2022-08-22T14:44:49.204Z,59.64
2022-08-22T14:51:10.198Z,60.17
2022-08-22T14:57:19.721Z,61.36
2022-08-22T15:03:25.030Z,61.26
2022-08-22T15:09:34.148Z,60.70
2022-08-22T15:15:49.376Z,60.71
2022-08-22T15:22:20.454Z,60.74
2022-08-22T15:28:22.846Z,61.16
2022-08-22T15:49:54.650Z,59.70
2022-08-22T15:56:07.150Z,59.79
2022-08-22T16:02:42.164Z,59.97
2022-08-22T16:08:52.608Z,60.27
2022-08-22T16:14:55.036Z,61.08
2022-08-22T16:20:58.152Z,60.34
2022-08-22T16:27:18.515Z,59.96
2022-08-22T16:33:39.244Z,59.65
2022-08-22T16:40:06.935Z,59.62
2022-08-22T16:46:31.376Z,59.64
2022-08-22T16:52:50.444Z,59.29
2022-08-22T16:59:19.653Z,58.97
2022-08-22T17:05:42.221Z,59.25
2022-08-22T17:11:55.019Z,58.50
2022-08-22T17:17:59.536Z,58.61
2022-08-22T17:24:31.650Z,58.46
2022-08-22T17:30:58.697Z,58.74
2022-08-22T17:37:38.644Z,60.30
2022-08-22T17:43:58.772Z,59.95
2022-08-22T17:50:10.756Z,60.26
2022-08-22T17:56:18.199Z,59.20
2022-08-22T18:02:23.408Z,59.59
2022-08-22T18:08:38.455Z,60.21
2022-08-22T18:14:55.523Z,60.90
2022-08-22T18:21:06.575Z,60.07
2022-08-22T18:27:30.021Z,60.93
2022-08-22T18:33:57.337Z,60.92
2022-08-22T18:40:16.594Z,60.43
2022-08-22T18:46:48.234Z,60.83
2022-08-22T18:52:55.952Z,60.75
2022-08-22T18:59:18.802Z,60.43
2022-08-22T19:05:26.254Z,60.49
2022-08-22T19:11:53.210Z,60.79
2022-08-22T19:18:06.741Z,60.42
2022-08-22T19:24:29.790Z,60.85
2022-08-22T19:30:34.267Z,60.70
2022-08-22T19:36:36.277Z,60.73
2022-08-22T19:42:44.200Z,60.96
2022-08-22T19:48:50.341Z,61.03
2022-08-22T19:55:28.834Z,60.74
2022-08-22T20:01:39.788Z,61.22
2022-08-22T20:07:56.603Z,60.76
2022-08-22T20:14:14.497Z,61.12
2022-08-22T20:20:24.067Z,61.02
2022-08-22T20:26:52.198Z,61.36
2022-08-22T20:33:20.712Z,61.32
2022-08-22T20:39:26.306Z,61.28
2022-08-22T20:45:29.563Z,60.84
2022-08-22T20:51:33.849Z,60.80
2022-08-22T20:57:49.202Z,60.78
2022-08-22T21:03:53.427Z,60.94
2022-08-22T21:10:22.758Z,61.38
2022-08-22T21:16:31.986Z,61.49
2022-08-22T21:22:33.755Z,61.17
2022-08-22T21:28:54.096Z,61.17
2022-08-22T21:34:56.100Z,61.59
2022-08-22T21:41:04.653Z,61.61
2022-08-22T21:47:31.384Z,61.25
2022-08-22T21:53:33.364Z,62.08
2022-08-22T21:59:51.387Z,62.85
2022-08-22T22:06:03.064Z,62.73
2022-08-22T22:12:04.906Z,62.97
2022-08-22T22:18:07.365Z,63.21
2022-08-22T22:24:09.072Z,63.33
2022-08-22T22:30:11.688Z,62.90
2022-08-22T22:36:20.563Z,63.21
2022-08-22T22:42:22.248Z,62.99
2022-08-22T22:48:24.887Z,62.91
2022-08-22T22:54:27.577Z,62.75
2022-08-22T23:00:34.885Z,62.92
2022-08-22T23:06:36.684Z,62.84
2022-08-22T23:12:39.292Z,62.38
2022-08-22T23:18:42.030Z,62.34
2022-08-22T23:24:43.822Z,62.85
2022-08-22T23:30:45.536Z,62.98
2022-08-22T23:36:48.347Z,62.64
2022-08-22T23:42:50.237Z,62.44
2022-08-22T23:48:52.857Z,62.92
2022-08-22T23:54:55.660Z,62.84
